X  Close Metar Aviation Weather Data     KOMA Eppley Airfield
Temperature
46°F Temperature
21°F Dewpoint
37% Humidity



Wind
16 MPH
26 KM/H
7 M/S
14 KTS



170°
South
Current Conditions

Mostly Scattered Clouds Mostly Scattered Clouds
Pressure 1012.52 (hPa) - 29.9 (inHg)
Visibility 10 (mile) - 16.1 (km)
Airport
Airport-code KOMA

Location: Eppley Airfield
Distance: 20 (mi)

Metar:
KOMA 012352Z 17014KT 10SM SCT250 08/M06 A2990 RMK AO2 SLP134 T00781056 10094 20044 56009

Time: 12-01-2022 17:52 CST